createdAt,value
2024-02-16T00:00:10.829Z,18.26
2024-02-16T00:01:10.827Z,18.26
2024-02-16T00:02:10.756Z,18.26
2024-02-16T00:03:10.786Z,18.25
2024-02-16T00:04:10.843Z,18.25
2024-02-16T00:05:10.806Z,18.25
2024-02-16T00:06:10.838Z,18.24
2024-02-16T00:07:10.912Z,18.24
2024-02-16T00:08:10.772Z,18.24
2024-02-16T00:09:10.795Z,18.23
2024-02-16T00:10:10.818Z,18.23
2024-02-16T00:11:10.795Z,18.23
2024-02-16T00:12:10.825Z,18.22
2024-02-16T00:13:10.832Z,18.22
2024-02-16T00:14:10.812Z,18.22
2024-02-16T00:15:10.833Z,18.22
2024-02-16T00:16:10.785Z,18.21
2024-02-16T00:17:10.795Z,18.21
2024-02-16T00:18:10.852Z,18.21
2024-02-16T00:19:10.873Z,18.21
2024-02-16T00:20:10.860Z,18.20
2024-02-16T00:21:10.827Z,18.21
2024-02-16T00:22:10.845Z,18.20
2024-02-16T00:23:10.797Z,18.20
2024-02-16T00:24:10.837Z,18.19
2024-02-16T00:25:10.808Z,18.19
2024-02-16T00:26:10.825Z,18.19
2024-02-16T00:27:10.825Z,18.19
2024-02-16T00:28:10.867Z,18.18
2024-02-16T00:29:10.809Z,18.18
2024-02-16T00:30:10.838Z,18.18
2024-02-16T00:31:10.863Z,18.18
2024-02-16T00:32:10.821Z,18.18
2024-02-16T00:33:10.868Z,18.17
2024-02-16T00:34:10.892Z,18.17
2024-02-16T00:35:10.874Z,18.17
2024-02-16T00:36:10.948Z,18.17
2024-02-16T00:37:10.844Z,18.16
2024-02-16T00:38:10.818Z,18.16
2024-02-16T00:39:10.888Z,18.15
2024-02-16T00:40:10.852Z,18.16
2024-02-16T00:41:10.825Z,18.15
2024-02-16T00:42:11.013Z,18.15
2024-02-16T00:43:10.832Z,18.14
2024-02-16T00:44:10.832Z,18.14
2024-02-16T00:45:10.889Z,18.13
2024-02-16T00:46:10.843Z,18.13
2024-02-16T00:47:10.841Z,18.13
2024-02-16T00:48:10.946Z,18.13
2024-02-16T00:49:10.931Z,18.13
2024-02-16T00:50:11.003Z,18.13
2024-02-16T00:51:10.971Z,18.12
2024-02-16T00:52:11.484Z,18.12
2024-02-16T00:53:11.027Z,18.12
2024-02-16T00:54:11.114Z,18.11
2024-02-16T00:55:11.353Z,18.10
2024-02-16T00:56:11.155Z,18.10
2024-02-16T00:57:11.272Z,18.10
2024-02-16T00:58:11.262Z,18.10
2024-02-16T00:59:11.302Z,18.10
2024-02-16T01:00:11.532Z,18.09
2024-02-16T01:01:11.406Z,18.09
2024-02-16T01:02:11.446Z,18.09
2024-02-16T01:03:11.483Z,18.08
2024-02-16T01:04:11.632Z,18.07
2024-02-16T01:05:11.952Z,18.07
2024-02-16T01:06:11.810Z,18.07
2024-02-16T01:07:11.736Z,18.07
2024-02-16T01:08:11.717Z,18.06
2024-02-16T01:09:11.796Z,18.06
2024-02-16T01:10:11.816Z,18.06
2024-02-16T01:11:11.905Z,18.06
2024-02-16T01:12:11.928Z,18.05
2024-02-16T01:13:11.945Z,18.06
2024-02-16T01:14:12.017Z,18.05
2024-02-16T01:15:12.120Z,18.05
2024-02-16T01:16:12.105Z,18.05
2024-02-16T01:17:12.172Z,18.05
2024-02-16T01:18:12.286Z,18.05
2024-02-16T01:19:12.306Z,18.04
2024-02-16T01:20:12.820Z,18.03
2024-02-16T01:21:12.430Z,18.04
2024-02-16T01:22:12.501Z,18.03
2024-02-16T01:23:12.488Z,18.02
2024-02-16T01:24:12.555Z,18.03
2024-02-16T01:25:12.784Z,18.03
2024-02-16T01:26:12.777Z,18.02
2024-02-16T01:27:12.862Z,18.02
2024-02-16T01:28:12.790Z,18.02
2024-02-16T01:29:12.905Z,18.02
2024-02-16T01:30:12.930Z,18.02
2024-02-16T01:31:13.025Z,18.01
2024-02-16T01:32:13.033Z,18.01
2024-02-16T01:33:13.187Z,18.01
2024-02-16T01:34:13.225Z,18.01
2024-02-16T01:35:13.238Z,18.01
2024-02-16T01:36:13.319Z,18.01
2024-02-16T01:37:13.335Z,18.00
2024-02-16T01:38:13.403Z,18.00
2024-02-16T01:39:13.507Z,18.00
2024-02-16T01:40:13.514Z,18.00
2024-02-16T01:41:13.561Z,17.99
2024-02-16T01:42:13.648Z,17.99
2024-02-16T01:43:13.678Z,17.98
2024-02-16T01:44:13.722Z,17.99
2024-02-16T01:45:13.837Z,17.98
2024-02-16T01:46:13.844Z,17.98
2024-02-16T01:47:13.883Z,17.98
2024-02-16T01:48:14.018Z,17.97
2024-02-16T01:49:14.044Z,17.97
2024-02-16T01:50:14.531Z,17.97
2024-02-16T01:51:14.140Z,17.96
2024-02-16T01:52:14.177Z,17.96
2024-02-16T01:53:14.237Z,17.96
2024-02-16T01:54:14.285Z,17.96
2024-02-16T01:55:14.343Z,17.96
2024-02-16T01:56:14.389Z,17.95
2024-02-16T01:57:14.500Z,17.95
2024-02-16T01:58:14.505Z,17.95
2024-02-16T01:59:14.560Z,17.94
2024-02-16T02:00:14.678Z,17.94
2024-02-16T02:01:14.688Z,17.94
2024-02-16T02:02:14.745Z,17.94
2024-02-16T02:03:14.813Z,17.93
2024-02-16T02:04:14.881Z,17.92
2024-02-16T02:05:15.010Z,17.92
2024-02-16T02:06:15.035Z,17.91
2024-02-16T02:07:15.065Z,17.91
2024-02-16T02:08:15.068Z,17.90
2024-02-16T02:09:15.138Z,17.91
2024-02-16T02:10:15.270Z,17.91
2024-02-16T02:11:15.300Z,17.91
2024-02-16T02:12:15.416Z,17.91
2024-02-16T02:13:15.378Z,17.90
2024-02-16T02:14:15.431Z,17.90
2024-02-16T02:15:15.540Z,17.90
2024-02-16T02:16:15.604Z,17.91
2024-02-16T02:17:15.679Z,17.90
2024-02-16T02:18:15.761Z,17.89
2024-02-16T02:19:15.868Z,17.89
2024-02-16T02:20:15.909Z,17.89
2024-02-16T02:21:15.982Z,17.89
2024-02-16T02:22:15.939Z,17.89
2024-02-16T02:23:16.025Z,17.88
2024-02-16T02:24:16.095Z,17.88
2024-02-16T02:25:16.146Z,17.88
2024-02-16T02:26:16.204Z,17.87
2024-02-16T02:27:16.309Z,17.87
2024-02-16T02:28:16.339Z,17.87
2024-02-16T02:29:16.396Z,17.87
2024-02-16T02:30:16.485Z,17.87
2024-02-16T02:31:16.501Z,17.86
2024-02-16T02:32:16.585Z,17.86
2024-02-16T02:33:16.855Z,17.85
2024-02-16T02:34:16.778Z,17.85
2024-02-16T02:35:16.757Z,17.85
2024-02-16T02:36:16.863Z,17.85
2024-02-16T02:37:16.895Z,17.85
2024-02-16T02:38:16.944Z,17.85
2024-02-16T02:39:17.079Z,17.84
2024-02-16T02:40:17.082Z,17.85
2024-02-16T02:41:17.141Z,17.85
2024-02-16T02:42:17.219Z,17.84
2024-02-16T02:43:17.286Z,17.83
2024-02-16T02:44:17.344Z,17.83
2024-02-16T02:45:17.437Z,17.83
2024-02-16T02:46:17.623Z,17.83
2024-02-16T02:47:17.553Z,17.83
2024-02-16T02:48:17.746Z,17.82
2024-02-16T02:49:17.756Z,17.83
2024-02-16T02:50:17.851Z,17.83
2024-02-16T02:51:17.875Z,17.82
2024-02-16T02:52:17.904Z,17.82
2024-02-16T02:53:17.983Z,17.82
2024-02-16T02:54:18.059Z,17.82
2024-02-16T02:55:18.101Z,17.82
2024-02-16T02:56:18.182Z,17.82
2024-02-16T02:57:18.318Z,17.81
2024-02-16T02:58:18.306Z,17.81
2024-02-16T02:59:18.398Z,17.81
2024-02-16T03:00:18.479Z,17.81
2024-02-16T03:01:18.559Z,17.81
2024-02-16T03:02:18.636Z,17.80
2024-02-16T03:03:18.733Z,17.80
2024-02-16T03:04:18.744Z,17.80
2024-02-16T03:05:18.875Z,17.80
2024-02-16T03:06:18.872Z,17.79
2024-02-16T03:07:18.950Z,17.78
2024-02-16T03:08:18.996Z,17.78
2024-02-16T03:09:19.054Z,17.78
2024-02-16T03:10:19.130Z,17.78
2024-02-16T03:11:19.226Z,17.78
2024-02-16T03:12:19.279Z,17.78
2024-02-16T03:13:19.409Z,17.78
2024-02-16T03:14:19.382Z,17.77
2024-02-16T03:15:19.546Z,17.78
2024-02-16T03:16:19.541Z,17.77
2024-02-16T03:17:19.620Z,17.76
2024-02-16T03:18:19.796Z,17.76
2024-02-16T03:19:19.891Z,17.76
2024-02-16T03:20:19.821Z,17.75
2024-02-16T03:21:19.933Z,17.76
2024-02-16T03:22:19.961Z,17.75
2024-02-16T03:23:20.037Z,17.75
2024-02-16T03:24:20.140Z,17.75
2024-02-16T03:25:20.172Z,17.76
2024-02-16T03:26:20.258Z,17.75
2024-02-16T03:27:20.420Z,17.75
2024-02-16T03:28:20.401Z,17.75
2024-02-16T03:29:20.489Z,17.75
2024-02-16T03:30:20.647Z,17.74
2024-02-16T03:31:20.639Z,17.74
2024-02-16T03:32:20.708Z,17.73
2024-02-16T03:33:20.819Z,17.73
2024-02-16T03:34:20.944Z,17.73
2024-02-16T03:35:25.949Z,17.72
2024-02-16T03:36:21.183Z,17.72
2024-02-16T03:37:20.905Z,17.72
2024-02-16T03:38:20.913Z,17.72
2024-02-16T03:39:20.977Z,17.71
2024-02-16T03:40:20.917Z,17.71
2024-02-16T03:41:20.972Z,17.71
2024-02-16T03:42:21.026Z,17.70
2024-02-16T03:43:21.084Z,17.69
2024-02-16T03:44:21.158Z,17.70
2024-02-16T03:45:21.313Z,17.69
2024-02-16T03:46:21.267Z,17.69
2024-02-16T03:47:21.327Z,17.69
2024-02-16T03:48:21.480Z,17.69
2024-02-16T03:49:21.593Z,17.70
2024-02-16T03:50:21.502Z,17.70
2024-02-16T03:51:21.605Z,17.69
2024-02-16T03:52:21.611Z,17.69
2024-02-16T03:53:21.688Z,17.69
2024-02-16T03:54:21.769Z,17.69
2024-02-16T03:55:21.775Z,17.69
2024-02-16T03:56:21.812Z,17.68
2024-02-16T03:57:21.947Z,17.68
2024-02-16T03:58:21.908Z,17.68
2024-02-16T03:59:21.977Z,17.67
2024-02-16T04:00:22.066Z,17.67
2024-02-16T04:01:22.111Z,17.67
2024-02-16T04:02:22.106Z,17.66
2024-02-16T04:03:22.251Z,17.66
2024-02-16T04:04:22.267Z,17.66
2024-02-16T04:05:22.244Z,17.66
2024-02-16T04:06:22.328Z,17.65
2024-02-16T04:07:22.386Z,17.66
2024-02-16T04:08:22.397Z,17.65
2024-02-16T04:09:22.471Z,17.65
2024-02-16T04:10:27.483Z,17.65
2024-02-16T04:11:22.536Z,17.65
2024-02-16T04:12:22.502Z,17.65
2024-02-16T04:13:22.476Z,17.65
2024-02-16T04:14:22.477Z,17.65
2024-02-16T04:15:27.568Z,17.65
2024-02-16T04:16:22.526Z,17.64
2024-02-16T04:17:22.493Z,17.64
2024-02-16T04:18:22.787Z,17.65
2024-02-16T04:19:22.600Z,17.64
2024-02-16T04:20:22.505Z,17.63
2024-02-16T04:21:22.594Z,17.62
2024-02-16T04:22:22.486Z,17.62
2024-02-16T04:23:22.501Z,17.62
2024-02-16T04:24:22.597Z,17.62
2024-02-16T04:25:22.552Z,17.62
2024-02-16T04:26:22.498Z,17.62
2024-02-16T04:27:22.606Z,17.61
2024-02-16T04:28:22.583Z,17.61
2024-02-16T04:29:22.638Z,17.60
2024-02-16T04:30:22.733Z,17.60
2024-02-16T04:31:22.740Z,17.60
2024-02-16T04:32:22.788Z,17.60
2024-02-16T04:33:22.896Z,17.60
2024-02-16T04:34:22.960Z,17.60
2024-02-16T04:35:22.928Z,17.60
2024-02-16T04:36:22.951Z,17.59
2024-02-16T04:37:22.935Z,17.58
2024-02-16T04:38:22.946Z,17.58
2024-02-16T04:39:23.047Z,17.58
2024-02-16T04:40:32.058Z,17.58
2024-02-16T04:41:22.996Z,17.56
2024-02-16T04:42:23.045Z,17.56
2024-02-16T04:43:23.001Z,17.56
2024-02-16T04:44:22.992Z,17.57
2024-02-16T04:45:23.022Z,17.57
2024-02-16T04:46:23.004Z,17.57
2024-02-16T04:47:23.022Z,17.57
2024-02-16T04:48:23.092Z,17.57
2024-02-16T04:49:23.116Z,17.56
2024-02-16T04:50:27.181Z,17.57
2024-02-16T04:51:23.061Z,17.56
2024-02-16T04:52:23.015Z,17.56
2024-02-16T04:53:23.062Z,17.56
2024-02-16T04:54:23.069Z,17.55
2024-02-16T04:55:30.402Z,17.52
2024-02-16T04:56:30.394Z,17.54
2024-02-16T04:57:30.509Z,17.55
2024-02-16T04:58:30.407Z,17.54
2024-02-16T04:59:30.415Z,17.54
2024-02-16T05:00:32.431Z,17.55
2024-02-16T05:01:30.577Z,17.55
2024-02-16T05:02:30.423Z,17.55
2024-02-16T05:03:30.476Z,17.56
2024-02-16T05:04:30.430Z,17.55
2024-02-16T05:05:30.492Z,17.55
2024-02-16T05:06:30.543Z,17.54
2024-02-16T05:07:30.417Z,17.54
2024-02-16T05:08:30.440Z,17.53
2024-02-16T05:09:30.460Z,17.53
2024-02-16T05:10:32.361Z,17.53
2024-02-16T05:11:30.467Z,17.52
2024-02-16T05:12:30.541Z,17.52
2024-02-16T05:13:30.432Z,17.52
2024-02-16T05:14:30.442Z,17.52
2024-02-16T05:15:30.448Z,17.51
2024-02-16T05:16:30.447Z,17.51
2024-02-16T05:17:30.452Z,17.51
2024-02-16T05:18:30.561Z,17.50
2024-02-16T05:19:30.470Z,17.51
2024-02-16T05:20:30.455Z,17.50
2024-02-16T05:21:30.599Z,17.49
2024-02-16T05:22:30.449Z,17.49
2024-02-16T05:23:30.445Z,17.49
2024-02-16T05:24:30.630Z,17.49
2024-02-16T05:25:32.372Z,17.50
2024-02-16T05:26:30.466Z,17.50
2024-02-16T05:27:30.535Z,17.49
2024-02-16T05:28:30.537Z,17.48
2024-02-16T05:29:30.455Z,17.49
2024-02-16T05:30:30.497Z,17.49
2024-02-16T05:31:30.459Z,17.49
2024-02-16T05:32:30.486Z,17.48
2024-02-16T05:33:30.634Z,17.48
2024-02-16T05:34:30.541Z,17.47
2024-02-16T05:35:30.478Z,17.47
2024-02-16T05:36:30.581Z,17.47
2024-02-16T05:37:30.471Z,17.47
2024-02-16T05:38:30.470Z,17.46
2024-02-16T05:39:30.544Z,17.46
2024-02-16T05:40:30.520Z,17.46
2024-02-16T05:41:30.488Z,17.45
2024-02-16T05:42:30.598Z,17.46
2024-02-16T05:43:30.477Z,17.46
2024-02-16T05:44:30.498Z,17.44
2024-02-16T05:45:30.551Z,17.44
2024-02-16T05:46:30.486Z,17.44
2024-02-16T05:47:30.518Z,17.44
2024-02-16T05:48:30.615Z,17.44
2024-02-16T05:49:30.542Z,17.45
2024-02-16T05:50:30.616Z,17.43
2024-02-16T05:51:30.519Z,17.44
2024-02-16T05:52:30.492Z,17.43
2024-02-16T05:53:30.502Z,17.42
2024-02-16T05:54:30.541Z,17.42
2024-02-16T05:55:32.876Z,17.42
2024-02-16T05:56:30.523Z,17.42
2024-02-16T05:57:30.657Z,17.41
2024-02-16T05:58:30.509Z,17.40
2024-02-16T05:59:30.496Z,17.40
2024-02-16T06:00:40.608Z,17.42
2024-02-16T06:01:30.523Z,17.39
2024-02-16T06:02:30.521Z,17.40
2024-02-16T06:03:30.590Z,17.41
2024-02-16T06:04:30.600Z,17.41
2024-02-16T06:05:30.504Z,17.40
2024-02-16T06:06:30.576Z,17.40
2024-02-16T06:07:30.564Z,17.40
2024-02-16T06:08:31.028Z,17.40
2024-02-16T06:09:30.637Z,17.40
2024-02-16T06:10:30.540Z,17.39
2024-02-16T06:11:30.581Z,17.39
2024-02-16T06:12:30.618Z,17.40
2024-02-16T06:13:30.571Z,17.40
2024-02-16T06:14:30.533Z,17.39
2024-02-16T06:15:30.549Z,17.40
2024-02-16T06:16:30.529Z,17.39
2024-02-16T06:17:30.579Z,17.39
2024-02-16T06:18:30.632Z,17.40
2024-02-16T06:19:30.664Z,17.40
2024-02-16T06:20:30.540Z,17.39
2024-02-16T06:21:30.622Z,17.40
2024-02-16T06:22:30.525Z,17.40
2024-02-16T06:23:30.528Z,17.40
2024-02-16T06:24:30.609Z,17.39
2024-02-16T06:25:30.604Z,17.39
2024-02-16T06:26:30.544Z,17.39
2024-02-16T06:27:30.571Z,17.39
2024-02-16T06:28:30.548Z,17.38
2024-02-16T06:29:30.531Z,17.38
2024-02-16T06:30:30.606Z,17.38
2024-02-16T06:31:30.544Z,17.38
2024-02-16T06:32:30.579Z,17.37
2024-02-16T06:33:30.674Z,17.37
2024-02-16T06:34:30.700Z,17.38
2024-02-16T06:35:30.577Z,17.38
2024-02-16T06:36:30.724Z,17.38
2024-02-16T06:37:30.555Z,17.37
2024-02-16T06:38:30.569Z,17.38
2024-02-16T06:39:30.560Z,17.37
2024-02-16T06:40:35.562Z,17.38
2024-02-16T06:41:30.563Z,17.37
2024-02-16T06:42:30.654Z,17.38
2024-02-16T06:43:30.563Z,17.37
2024-02-16T06:44:30.567Z,17.37
2024-02-16T06:45:35.640Z,17.38
2024-02-16T06:46:30.579Z,17.37
2024-02-16T06:47:30.626Z,17.37
2024-02-16T06:48:30.679Z,17.38
2024-02-16T06:49:30.570Z,17.38
2024-02-16T06:50:30.620Z,17.38
2024-02-16T06:51:30.607Z,17.39
2024-02-16T06:52:30.595Z,17.38
2024-02-16T06:53:30.589Z,17.39
2024-02-16T06:54:30.633Z,17.38
2024-02-16T06:55:30.602Z,17.38
2024-02-16T06:56:30.610Z,17.38
2024-02-16T06:57:30.607Z,17.38
2024-02-16T06:58:30.591Z,17.38
2024-02-16T06:59:30.605Z,17.39
2024-02-16T07:00:30.665Z,17.39
2024-02-16T07:01:30.610Z,17.38
2024-02-16T07:02:30.586Z,17.38
2024-02-16T07:03:30.702Z,17.38
2024-02-16T07:04:30.633Z,17.38
2024-02-16T07:05:33.035Z,17.38
2024-02-16T07:06:30.659Z,17.39
2024-02-16T07:07:30.651Z,17.39
2024-02-16T07:08:30.593Z,17.39
2024-02-16T07:09:30.706Z,17.39
2024-02-16T07:10:30.617Z,17.39
2024-02-16T07:11:30.684Z,17.39
2024-02-16T07:12:30.652Z,17.39
2024-02-16T07:13:30.601Z,17.39
2024-02-16T07:14:30.607Z,17.39
2024-02-16T07:15:30.658Z,17.38
2024-02-16T07:16:30.606Z,17.38
2024-02-16T07:17:30.610Z,17.39
2024-02-16T07:18:30.677Z,17.39
2024-02-16T07:19:30.764Z,17.39
2024-02-16T07:20:30.614Z,17.39
2024-02-16T07:21:30.691Z,17.39
2024-02-16T07:22:30.615Z,17.40
2024-02-16T07:23:30.615Z,17.40
2024-02-16T07:24:30.648Z,17.41
2024-02-16T07:25:30.601Z,17.40
2024-02-16T07:26:30.611Z,17.41
2024-02-16T07:27:30.673Z,17.44
2024-02-16T07:28:30.617Z,17.51
2024-02-16T07:29:30.626Z,17.58
2024-02-16T07:30:39.605Z,17.65
2024-02-16T07:31:31.622Z,17.70
2024-02-16T07:32:30.661Z,17.75
2024-02-16T07:33:31.135Z,17.80
2024-02-16T07:34:30.763Z,17.85
2024-02-16T07:35:30.631Z,17.90
2024-02-16T07:36:30.766Z,17.97
2024-02-16T07:37:30.644Z,18.03
2024-02-16T07:38:30.653Z,18.08
2024-02-16T07:39:30.663Z,18.14
2024-02-16T07:40:30.679Z,18.20
2024-02-16T07:41:30.702Z,18.28
2024-02-16T07:42:30.796Z,18.32
2024-02-16T07:43:30.807Z,18.40
2024-02-16T07:44:30.858Z,18.47
2024-02-16T07:45:30.948Z,18.54
2024-02-16T07:46:34.059Z,18.60
2024-02-16T07:47:31.125Z,18.68
2024-02-16T07:48:31.063Z,18.74
2024-02-16T07:49:31.164Z,18.81
2024-02-16T07:50:30.948Z,18.88
2024-02-16T07:51:30.979Z,18.96
2024-02-16T07:52:30.967Z,19.03
2024-02-16T07:53:30.952Z,19.09
2024-02-16T07:54:30.996Z,19.17
2024-02-16T07:55:30.970Z,19.24
2024-02-16T07:56:30.973Z,19.31
2024-02-16T07:57:31.003Z,19.39
2024-02-16T07:58:30.977Z,19.45
2024-02-16T07:59:30.975Z,19.52
2024-02-16T08:00:31.061Z,19.59
2024-02-16T08:01:31.026Z,19.66
2024-02-16T08:02:30.979Z,19.72
2024-02-16T08:03:31.025Z,19.79
2024-02-16T08:04:30.999Z,19.86
2024-02-16T08:05:31.013Z,19.93
2024-02-16T08:06:31.095Z,19.99
2024-02-16T08:07:31.049Z,20.06
2024-02-16T08:08:31.016Z,20.11
2024-02-16T08:09:31.145Z,20.17
2024-02-16T08:10:31.087Z,20.23
2024-02-16T08:11:31.267Z,20.29
2024-02-16T08:12:31.141Z,20.36
2024-02-16T08:13:31.149Z,20.43
2024-02-16T08:14:31.161Z,20.50
2024-02-16T08:15:31.191Z,20.56
2024-02-16T08:16:31.197Z,20.63
2024-02-16T08:17:31.238Z,20.69
2024-02-16T08:18:31.425Z,20.76
2024-02-16T08:19:31.355Z,20.81
2024-02-16T08:20:31.300Z,20.87
2024-02-16T08:21:31.362Z,20.93
2024-02-16T08:22:31.374Z,20.99
2024-02-16T08:23:31.429Z,21.05
2024-02-16T08:24:31.551Z,21.12
2024-02-16T08:25:31.606Z,21.19
2024-02-16T08:26:31.631Z,21.26
2024-02-16T08:27:31.686Z,21.34
2024-02-16T08:28:31.725Z,21.43
2024-02-16T08:29:31.774Z,21.49
2024-02-16T08:30:31.898Z,21.54
2024-02-16T08:31:31.883Z,21.54
2024-02-16T08:32:31.908Z,21.53
2024-02-16T08:33:32.000Z,21.57
2024-02-16T08:34:32.035Z,21.63
2024-02-16T08:35:32.021Z,21.68
2024-02-16T08:36:32.108Z,21.72
2024-02-16T08:37:32.154Z,21.81
2024-02-16T08:38:32.090Z,21.90
2024-02-16T08:39:32.213Z,21.98
2024-02-16T08:40:32.156Z,22.04
2024-02-16T08:41:32.192Z,22.09
2024-02-16T08:42:32.232Z,22.08
2024-02-16T08:43:32.252Z,22.09
2024-02-16T08:44:32.245Z,22.14
2024-02-16T08:45:32.317Z,22.15
2024-02-16T08:46:32.295Z,22.11
2024-02-16T08:47:32.408Z,22.07
2024-02-16T08:48:32.450Z,22.07
2024-02-16T08:49:32.440Z,22.26
2024-02-16T08:50:32.373Z,22.64
2024-02-16T08:51:32.544Z,22.83
2024-02-16T08:52:32.430Z,22.97
2024-02-16T08:53:32.461Z,23.31
2024-02-16T08:54:32.514Z,23.58
2024-02-16T08:55:32.478Z,23.84
2024-02-16T08:56:32.476Z,24.03
2024-02-16T08:57:32.622Z,24.19
2024-02-16T08:58:32.593Z,24.33
2024-02-16T08:59:32.661Z,24.51
2024-02-16T09:00:32.809Z,24.65
2024-02-16T09:01:32.848Z,24.78
2024-02-16T09:02:32.822Z,24.90
2024-02-16T09:03:32.954Z,25.02
2024-02-16T09:04:32.961Z,25.14
2024-02-16T09:05:33.046Z,25.27
2024-02-16T09:06:33.144Z,25.38
2024-02-16T09:07:33.092Z,25.50
2024-02-16T09:08:33.111Z,25.40
2024-02-16T09:09:33.195Z,24.80
2024-02-16T09:10:33.181Z,24.30
2024-02-16T09:11:33.291Z,23.93
2024-02-16T09:12:33.411Z,23.66
2024-02-16T09:13:34.177Z,23.45
2024-02-16T09:14:33.413Z,23.26
2024-02-16T09:15:33.536Z,23.09
2024-02-16T09:16:33.536Z,22.92
2024-02-16T09:17:33.723Z,22.77
2024-02-16T09:18:33.774Z,22.64
2024-02-16T09:19:33.775Z,22.53
2024-02-16T09:20:33.762Z,22.41
2024-02-16T09:21:33.862Z,22.31
2024-02-16T09:23:33.821Z,22.12
2024-02-16T09:24:33.932Z,22.06
2024-02-16T09:25:33.794Z,21.98
2024-02-16T09:26:33.902Z,21.92
2024-02-16T09:27:33.829Z,21.86
2024-02-16T09:28:33.805Z,21.80
2024-02-16T09:29:33.805Z,21.75
2024-02-16T09:30:33.814Z,21.70
2024-02-16T09:31:41.110Z,21.62
2024-02-16T09:32:41.136Z,21.60
2024-02-16T09:33:41.161Z,21.56
2024-02-16T09:34:43.492Z,21.53
2024-02-16T09:35:41.101Z,21.49
2024-02-16T09:36:41.138Z,21.47
2024-02-16T09:37:41.112Z,21.44
2024-02-16T09:38:41.126Z,21.42
2024-02-16T09:39:41.120Z,21.40
2024-02-16T09:40:41.103Z,21.38
2024-02-16T09:41:41.109Z,21.36
2024-02-16T09:42:41.157Z,21.33
2024-02-16T09:43:41.128Z,21.34
2024-02-16T09:44:41.121Z,21.34
2024-02-16T09:45:41.164Z,21.42
2024-02-16T09:46:41.133Z,21.49
2024-02-16T09:47:42.857Z,21.52
2024-02-16T09:48:41.320Z,21.52
2024-02-16T09:49:41.660Z,21.61
2024-02-16T09:50:41.212Z,21.57
2024-02-16T09:51:41.115Z,21.51
2024-02-16T09:52:41.114Z,21.53
2024-02-16T09:53:41.115Z,21.90
2024-02-16T09:54:41.294Z,22.23
2024-02-16T09:55:41.121Z,22.49
2024-02-16T09:56:41.119Z,23.03
2024-02-16T09:57:41.123Z,23.48
2024-02-16T09:58:41.132Z,23.84
2024-02-16T09:59:41.124Z,24.07
2024-02-16T10:00:41.259Z,24.04
2024-02-16T10:01:41.166Z,23.76
2024-02-16T10:02:41.132Z,23.41
2024-02-16T10:03:41.138Z,23.08
2024-02-16T10:04:41.175Z,22.79
2024-02-16T10:05:41.206Z,22.68
2024-02-16T10:06:41.210Z,22.82
2024-02-16T10:07:41.267Z,22.90
2024-02-16T10:08:41.145Z,22.90
2024-02-16T10:09:41.666Z,22.94
2024-02-16T10:10:41.141Z,23.00
2024-02-16T10:11:41.197Z,23.09
2024-02-16T10:12:41.175Z,23.19
2024-02-16T10:13:41.160Z,23.26
2024-02-16T10:14:41.158Z,23.36
2024-02-16T10:15:41.201Z,23.48
2024-02-16T10:16:41.145Z,23.51
2024-02-16T10:17:41.161Z,23.41
2024-02-16T10:18:41.454Z,23.27
2024-02-16T10:19:42.443Z,23.29
2024-02-16T10:20:41.172Z,23.47
2024-02-16T10:21:41.238Z,23.68
2024-02-16T10:22:48.295Z,23.96
2024-02-16T10:23:44.268Z,24.24
2024-02-16T10:24:41.696Z,24.49
2024-02-16T10:25:41.282Z,24.60
2024-02-16T10:26:41.264Z,24.33
2024-02-16T10:27:41.287Z,24.06
2024-02-16T10:28:41.285Z,23.88
2024-02-16T10:29:41.266Z,23.71
2024-02-16T10:30:41.424Z,23.57
2024-02-16T10:31:41.275Z,23.69
2024-02-16T10:32:41.305Z,23.94
2024-02-16T10:33:41.367Z,23.94
2024-02-16T10:34:41.447Z,24.08
2024-02-16T10:35:41.293Z,24.21
2024-02-16T10:36:41.367Z,24.38
2024-02-16T10:37:41.283Z,24.31
2024-02-16T10:38:41.286Z,24.11
2024-02-16T10:39:41.306Z,23.90
2024-02-16T10:40:41.294Z,23.80
2024-02-16T10:41:41.292Z,23.78
2024-02-16T10:42:41.369Z,23.67
2024-02-16T10:43:41.280Z,23.55
2024-02-16T10:44:41.297Z,23.57
2024-02-16T10:45:41.466Z,23.66
2024-02-16T10:46:41.303Z,23.59
2024-02-16T10:47:41.319Z,23.40
2024-02-16T10:48:41.460Z,23.23
2024-02-16T10:49:41.366Z,23.11
2024-02-16T10:50:41.384Z,23.00
2024-02-16T10:51:41.347Z,22.92
2024-02-16T10:52:41.306Z,22.82
2024-02-16T10:53:41.296Z,22.78
2024-02-16T10:54:41.451Z,22.77
2024-02-16T10:55:41.291Z,22.77
2024-02-16T10:56:41.332Z,22.84
2024-02-16T10:57:41.380Z,22.86
2024-02-16T10:58:41.324Z,22.79
2024-02-16T10:59:41.315Z,22.76
2024-02-16T11:00:43.519Z,22.70
2024-02-16T11:01:41.403Z,22.64
2024-02-16T11:02:41.410Z,22.60
2024-02-16T11:03:41.545Z,22.56
2024-02-16T11:04:41.804Z,22.57
2024-02-16T11:05:41.669Z,22.64
2024-02-16T11:06:41.752Z,22.68
2024-02-16T11:07:41.790Z,22.72
2024-02-16T11:08:41.757Z,22.73
2024-02-16T11:09:41.837Z,22.66
2024-02-16T11:10:41.894Z,22.68
2024-02-16T11:11:41.928Z,22.71
2024-02-16T11:12:42.001Z,22.71
2024-02-16T11:13:42.022Z,22.72
2024-02-16T11:14:42.091Z,22.71
2024-02-16T11:15:42.175Z,22.66
2024-02-16T11:16:42.205Z,22.66
2024-02-16T11:17:42.298Z,22.72
2024-02-16T11:18:42.462Z,22.75
2024-02-16T11:19:42.479Z,22.78
2024-02-16T11:20:42.419Z,22.81
2024-02-16T11:21:42.595Z,22.82
2024-02-16T11:22:42.526Z,22.80
2024-02-16T11:23:42.571Z,22.80
2024-02-16T11:24:42.658Z,22.75
2024-02-16T11:25:42.692Z,22.72
2024-02-16T11:26:42.744Z,22.74
2024-02-16T11:27:42.942Z,22.77
2024-02-16T11:28:42.854Z,22.75
2024-02-16T11:29:42.883Z,22.75
2024-02-16T11:30:43.072Z,22.73
2024-02-16T11:31:43.069Z,22.71
2024-02-16T11:32:43.057Z,22.74
2024-02-16T11:33:43.225Z,22.79
2024-02-16T11:34:43.354Z,22.82
2024-02-16T11:35:43.206Z,22.84
2024-02-16T11:36:43.363Z,22.86
2024-02-16T11:37:43.285Z,22.90
2024-02-16T11:38:43.348Z,22.91
2024-02-16T11:39:43.438Z,22.94
2024-02-16T11:40:43.446Z,22.94
2024-02-16T11:41:43.489Z,22.96
2024-02-16T11:42:43.570Z,22.97
2024-02-16T11:43:43.547Z,22.99
2024-02-16T11:44:43.593Z,23.01
2024-02-16T11:45:43.733Z,23.02
2024-02-16T11:46:43.669Z,23.02
2024-02-16T11:47:43.772Z,23.05
2024-02-16T11:48:44.070Z,23.04
2024-02-16T11:49:43.932Z,23.06
2024-02-16T11:50:43.831Z,23.07
2024-02-16T11:51:43.870Z,23.06
2024-02-16T11:52:43.875Z,23.04
2024-02-16T11:53:43.910Z,23.07
2024-02-16T11:54:44.002Z,23.09
2024-02-16T11:55:44.081Z,23.12
2024-02-16T11:56:44.037Z,23.14
2024-02-16T11:57:44.248Z,23.15
2024-02-16T11:58:44.093Z,23.17
2024-02-16T11:59:44.045Z,23.19
2024-02-16T12:00:44.245Z,23.20
2024-02-16T12:01:44.208Z,23.20
2024-02-16T12:02:44.132Z,23.22
2024-02-16T12:03:44.233Z,23.22
2024-02-16T12:04:51.453Z,23.22
2024-02-16T12:05:45.195Z,23.23
2024-02-16T12:07:44.463Z,23.25
2024-02-16T12:08:44.251Z,23.27
2024-02-16T12:09:44.251Z,23.28
2024-02-16T12:10:44.173Z,23.29
2024-02-16T12:11:44.231Z,23.29
2024-02-16T12:12:44.579Z,23.31
2024-02-16T12:13:44.242Z,23.32
2024-02-16T12:14:44.201Z,23.32
2024-02-16T12:15:44.300Z,23.33
2024-02-16T12:16:54.214Z,23.33
2024-02-16T12:17:44.525Z,23.33
2024-02-16T12:18:44.467Z,23.34
2024-02-16T12:19:44.323Z,23.35
2024-02-16T12:20:44.171Z,23.36
2024-02-16T12:21:44.242Z,23.36
2024-02-16T12:22:44.310Z,23.37
2024-02-16T12:23:44.210Z,23.37
2024-02-16T12:24:44.280Z,23.36
2024-02-16T12:25:44.186Z,23.37
2024-02-16T12:26:44.205Z,23.39
2024-02-16T12:27:44.290Z,23.39
2024-02-16T12:28:44.240Z,23.38
2024-02-16T12:29:44.204Z,23.38
2024-02-16T12:30:44.314Z,23.39
2024-02-16T12:31:44.232Z,23.39
2024-02-16T12:32:44.387Z,23.39
2024-02-16T12:33:44.473Z,23.39
2024-02-16T12:34:44.352Z,23.39
2024-02-16T12:35:44.282Z,23.40
2024-02-16T12:36:47.447Z,23.40
2024-02-16T12:37:45.221Z,23.41
2024-02-16T12:39:44.385Z,23.40
2024-02-16T12:40:44.224Z,23.39
2024-02-16T12:41:44.391Z,23.40
2024-02-16T12:42:45.390Z,23.40
2024-02-16T12:43:44.273Z,23.40
2024-02-16T12:44:44.306Z,23.40
2024-02-16T12:45:44.348Z,23.41
2024-02-16T12:46:44.281Z,23.41
2024-02-16T12:47:44.333Z,23.41
2024-02-16T12:48:47.481Z,23.41
2024-02-16T12:49:45.359Z,23.40
2024-02-16T12:50:44.310Z,23.40
2024-02-16T12:51:44.366Z,23.36
2024-02-16T12:52:50.856Z,23.37
2024-02-16T12:53:45.245Z,23.35
2024-02-16T12:54:46.110Z,23.34
2024-02-16T12:55:44.262Z,23.36